Atlanta, Georgia
Traffic Map
Current Weather Conditions
Atlanta, Georgia
Overcast
Overcast
57°
Feels Like: 57°
Wind Chill: 57° Ceiling: 7000
Heat Index: 57° Visibility: 10mi
Dew Point: 30° Wind: 10mph
Humidity: 36% Direction: 100° (E)
Pressure: 30.26in Gusts: 0mph
Raw Report DataKATL 222252Z 10009KT 10SM SCT035 BKN070 OVC250 14/M01 A3026 RMK AO2 SLP252 T01391011 $
Traffic Incident Summary
Active as of:
Severity:
Category:
InformationThere was an issue retrieving the traffic information for this location. Please try a different location or try again shortly.
Advertisements
Track Severe Weather on mobile